createdAt,value
2023-04-20T00:00:25.552Z,8.37
2023-04-20T00:02:53.215Z,8.36
2023-04-20T00:05:19.836Z,8.34
2023-04-20T00:07:46.370Z,8.33
2023-04-20T00:10:12.833Z,8.33
2023-04-20T00:12:39.419Z,8.29
2023-04-20T00:15:06.519Z,8.26
2023-04-20T00:17:33.070Z,8.13
2023-04-20T00:19:59.549Z,8.16
2023-04-20T00:22:26.432Z,8.16
2023-04-20T00:24:52.897Z,8.19
2023-04-20T00:27:19.424Z,8.30
2023-04-20T00:29:45.890Z,8.23
2023-04-20T00:32:12.378Z,8.19
2023-04-20T00:34:39.058Z,8.14
2023-04-20T00:37:06.224Z,8.51
2023-04-20T00:39:32.905Z,8.28
2023-04-20T00:42:06.943Z,8.31
2023-04-20T00:44:33.653Z,8.31
2023-04-20T00:47:00.850Z,8.32
2023-04-20T00:49:30.040Z,8.19
2023-04-20T00:51:58.258Z,8.18
2023-04-20T00:54:26.206Z,8.37
2023-04-20T00:56:53.374Z,8.37
2023-04-20T00:59:21.419Z,8.29
2023-04-20T01:01:48.055Z,8.25
2023-04-20T01:04:14.751Z,8.29
2023-04-20T01:06:41.352Z,8.45
2023-04-20T01:09:07.906Z,8.47
2023-04-20T01:11:34.522Z,8.66
2023-04-20T01:14:01.501Z,8.64
2023-04-20T01:16:28.184Z,8.74
2023-04-20T01:18:54.814Z,8.61
2023-04-20T01:21:24.231Z,8.57
2023-04-20T01:23:50.830Z,8.69
2023-04-20T01:26:18.838Z,8.75
2023-04-20T01:28:45.579Z,8.82
2023-04-20T01:31:12.631Z,8.72
2023-04-20T01:33:39.882Z,8.71
2023-04-20T01:36:07.797Z,8.81
2023-04-20T01:38:34.810Z,8.88
2023-04-20T01:41:04.396Z,8.74
2023-04-20T01:43:31.018Z,8.87
2023-04-20T01:45:57.575Z,8.67
2023-04-20T01:48:24.015Z,8.75
2023-04-20T01:50:51.810Z,8.83
2023-04-20T01:53:18.503Z,8.91
2023-04-20T01:55:45.046Z,8.84
2023-04-20T01:58:11.641Z,8.78
2023-04-20T02:00:38.129Z,8.86
2023-04-20T02:03:04.962Z,8.81
2023-04-20T02:05:31.531Z,8.76
2023-04-20T02:07:58.093Z,8.72
2023-04-20T02:10:24.735Z,8.76
2023-04-20T02:12:51.329Z,8.85
2023-04-20T02:15:17.832Z,8.81
2023-04-20T02:17:45.217Z,8.66
2023-04-20T02:20:12.587Z,8.77
2023-04-20T02:22:39.179Z,8.71
2023-04-20T02:25:06.871Z,8.80
2023-04-20T02:27:33.385Z,8.75
2023-04-20T02:30:00.190Z,8.65
2023-04-20T02:32:27.182Z,8.76
2023-04-20T02:34:53.675Z,8.68
2023-04-20T02:37:20.168Z,8.67
2023-04-20T02:39:46.674Z,8.68
2023-04-20T02:42:13.222Z,8.67
2023-04-20T02:44:39.710Z,8.65
2023-04-20T02:47:06.463Z,8.68
2023-04-20T02:49:32.964Z,8.71
2023-04-20T02:51:59.456Z,8.80
2023-04-20T02:54:25.999Z,8.67
2023-04-20T02:56:52.505Z,8.60
2023-04-20T02:59:19.245Z,8.53
2023-04-20T03:01:46.204Z,8.50
2023-04-20T03:04:13.279Z,8.47
2023-04-20T03:06:40.573Z,8.67
2023-04-20T03:09:07.741Z,8.48
2023-04-20T03:11:34.385Z,8.45
2023-04-20T03:14:01.001Z,8.66
2023-04-20T03:16:27.512Z,8.47
2023-04-20T03:18:54.170Z,8.52
2023-04-20T03:21:20.694Z,8.55
2023-04-20T03:23:47.610Z,8.48
2023-04-20T03:26:14.151Z,8.56
2023-04-20T03:28:42.050Z,8.43
2023-04-20T03:31:08.796Z,8.47
2023-04-20T03:33:35.322Z,8.47
2023-04-20T03:36:01.925Z,8.36
2023-04-20T03:38:28.418Z,8.28
2023-04-20T03:40:54.941Z,8.30
2023-04-20T03:43:22.110Z,8.35
2023-04-20T03:45:49.731Z,8.48
2023-04-20T03:48:16.395Z,8.68
2023-04-20T03:50:43.284Z,8.63
2023-04-20T03:53:10.869Z,8.45
2023-04-20T03:55:37.679Z,8.37
2023-04-20T03:58:07.120Z,8.25
2023-04-20T04:00:46.346Z,8.49
2023-04-20T04:03:17.151Z,8.49
2023-04-20T04:05:44.807Z,8.53
2023-04-20T04:08:12.909Z,8.53
2023-04-20T04:10:39.883Z,8.50
2023-04-20T04:13:07.606Z,8.48
2023-04-20T04:15:34.496Z,8.48
2023-04-20T04:18:01.712Z,8.33
2023-04-20T04:20:28.504Z,8.38
2023-04-20T04:22:58.447Z,8.38
2023-04-20T04:25:25.490Z,8.28
2023-04-20T04:27:53.219Z,8.44
2023-04-20T04:30:21.025Z,8.25
2023-04-20T04:32:49.054Z,8.36
2023-04-20T04:35:16.024Z,8.39
2023-04-20T04:37:43.308Z,8.42
2023-04-20T04:40:11.826Z,8.51
2023-04-20T04:42:38.665Z,8.60
2023-04-20T04:45:05.845Z,8.62
2023-04-20T04:47:36.033Z,8.57
2023-04-20T04:50:06.232Z,8.62
2023-04-20T04:52:35.668Z,8.67
2023-04-20T04:55:03.083Z,8.71
2023-04-20T04:57:29.709Z,8.66
2023-04-20T04:59:56.307Z,8.79
2023-04-20T05:02:23.221Z,8.79
2023-04-20T05:04:49.996Z,8.90
2023-04-20T05:07:17.427Z,8.99
2023-04-20T05:09:44.172Z,8.88
2023-04-20T05:12:12.302Z,8.91
2023-04-20T05:14:38.798Z,9.11
2023-04-20T05:17:05.789Z,9.01
2023-04-20T05:19:32.503Z,9.07
2023-04-20T05:21:59.056Z,9.33
2023-04-20T05:24:25.696Z,9.26
2023-04-20T05:26:52.196Z,9.37
2023-04-20T05:29:18.863Z,9.41
2023-04-20T05:31:45.537Z,9.41
2023-04-20T05:34:12.249Z,9.36
2023-04-20T05:36:40.300Z,9.49
2023-04-20T05:39:06.884Z,9.56
2023-04-20T05:41:33.512Z,9.77
2023-04-20T05:44:00.007Z,10.03
2023-04-20T05:46:26.676Z,10.22
2023-04-20T05:48:53.450Z,10.45
2023-04-20T05:51:19.944Z,10.61
2023-04-20T05:53:46.736Z,10.83
2023-04-20T05:56:14.718Z,10.98
2023-04-20T05:58:41.515Z,11.06
2023-04-20T06:01:08.080Z,11.09
2023-04-20T06:03:34.785Z,11.01
2023-04-20T06:06:01.500Z,10.90
2023-04-20T06:08:27.997Z,10.95
2023-04-20T06:10:56.190Z,11.16
2023-04-20T06:13:22.764Z,11.25
2023-04-20T06:15:49.417Z,11.48
2023-04-20T06:18:16.310Z,11.91
2023-04-20T06:20:47.816Z,12.20
2023-04-20T06:23:14.473Z,12.04
2023-04-20T06:25:41.284Z,12.44
2023-04-20T06:28:08.619Z,12.74
2023-04-20T06:30:35.466Z,12.74
2023-04-20T06:33:03.146Z,13.19
2023-04-20T06:35:29.922Z,13.61
2023-04-20T06:37:57.487Z,14.33
2023-04-20T06:40:28.162Z,15.14
2023-04-20T06:42:54.891Z,15.89
2023-04-20T06:45:21.973Z,17.57
2023-04-20T06:47:48.918Z,18.58
2023-04-20T06:50:16.267Z,19.49
2023-04-20T06:52:43.452Z,19.56
2023-04-20T06:55:14.100Z,19.52
2023-04-20T06:57:43.895Z,19.32
2023-04-20T07:00:12.486Z,20.79
2023-04-20T07:02:46.847Z,21.00
2023-04-20T07:05:14.438Z,21.69
2023-04-20T07:07:41.389Z,21.11
2023-04-20T07:10:10.457Z,20.87
2023-04-20T07:12:37.762Z,20.83
2023-04-20T07:15:05.630Z,20.34
2023-04-20T07:17:32.582Z,20.45
2023-04-20T07:20:09.097Z,20.52
2023-04-20T07:22:37.697Z,21.69
2023-04-20T07:25:07.131Z,21.03
2023-04-20T07:27:42.143Z,21.72
2023-04-20T07:30:11.487Z,21.91
2023-04-20T07:32:40.231Z,22.70
2023-04-20T07:35:07.779Z,21.97
2023-04-20T07:37:35.156Z,21.40
2023-04-20T07:40:02.332Z,20.71
2023-04-20T07:42:33.696Z,20.36
2023-04-20T07:45:00.657Z,20.44
2023-04-20T07:47:27.776Z,22.05
2023-04-20T07:49:54.948Z,22.73
2023-04-20T07:52:22.068Z,22.70
2023-04-20T07:54:49.801Z,21.76
2023-04-20T07:57:17.114Z,21.83
2023-04-20T07:59:46.481Z,21.58
2023-04-20T08:02:13.599Z,21.14
2023-04-20T08:04:41.488Z,21.11
2023-04-20T08:07:08.841Z,20.45
2023-04-20T08:09:35.781Z,19.77
2023-04-20T08:12:03.106Z,19.80
2023-04-20T08:14:30.070Z,20.01
2023-04-20T08:16:56.941Z,19.77
2023-04-20T08:19:23.750Z,19.02
2023-04-20T08:21:51.760Z,18.71
2023-04-20T08:24:20.912Z,19.00
2023-04-20T08:26:48.073Z,19.16
2023-04-20T08:29:15.100Z,19.63
2023-04-20T08:31:43.129Z,18.75
2023-04-20T08:34:14.118Z,18.56
2023-04-20T08:36:41.429Z,18.56
2023-04-20T08:39:18.503Z,18.89
2023-04-20T08:41:45.228Z,18.40
2023-04-20T08:44:12.225Z,17.94
2023-04-20T08:46:41.528Z,18.31
2023-04-20T08:49:12.937Z,18.46
2023-04-20T08:51:41.915Z,18.50
2023-04-20T08:54:08.842Z,18.24
2023-04-20T08:56:37.854Z,18.34
2023-04-20T08:59:05.864Z,18.49
2023-04-20T09:01:35.924Z,18.29
2023-04-20T09:04:14.856Z,18.14
2023-04-20T09:06:53.802Z,18.15
2023-04-20T09:09:22.723Z,17.82
2023-04-20T09:12:02.733Z,17.67
2023-04-20T09:14:30.451Z,17.18
2023-04-20T09:17:02.277Z,17.09
2023-04-20T09:19:30.509Z,17.34
2023-04-20T09:21:59.946Z,17.40
2023-04-20T09:24:32.836Z,17.27
2023-04-20T09:27:03.579Z,16.99
2023-04-20T09:29:30.391Z,17.21
2023-04-20T09:31:57.086Z,17.35
2023-04-20T09:34:24.096Z,17.07
2023-04-20T09:36:52.459Z,17.17
2023-04-20T09:39:20.927Z,17.27
2023-04-20T09:41:48.003Z,17.58
2023-04-20T09:44:16.140Z,17.42
2023-04-20T09:46:43.972Z,17.41
2023-04-20T09:49:14.063Z,17.36
2023-04-20T09:51:45.279Z,17.39
2023-04-20T09:54:12.952Z,17.01
2023-04-20T09:56:40.617Z,17.22
2023-04-20T09:59:07.859Z,17.41
2023-04-20T10:01:37.994Z,17.34
2023-04-20T10:04:09.226Z,17.77
2023-04-20T10:06:37.259Z,17.88
2023-04-20T10:09:05.826Z,17.72
2023-04-20T10:11:52.406Z,17.71
2023-04-20T10:14:26.084Z,17.91
2023-04-20T10:17:04.947Z,17.71
2023-04-20T10:19:41.080Z,17.92
2023-04-20T10:22:10.203Z,17.76
2023-04-20T10:24:40.359Z,17.80
2023-04-20T10:27:27.166Z,17.49
2023-04-20T10:29:53.961Z,17.20
2023-04-20T10:32:29.738Z,17.19
2023-04-20T10:35:06.870Z,17.12
2023-04-20T10:37:33.934Z,17.13
2023-04-20T10:40:04.261Z,17.42
2023-04-20T10:42:44.894Z,17.54
2023-04-20T10:45:12.593Z,17.73
2023-04-20T10:47:40.844Z,17.78
2023-04-20T10:50:08.493Z,17.68
2023-04-20T10:52:37.061Z,17.73
2023-04-20T10:55:04.876Z,18.02
2023-04-20T10:57:31.509Z,18.27
2023-04-20T10:59:58.145Z,17.89
2023-04-20T11:02:24.932Z,17.77
2023-04-20T11:04:53.445Z,18.00
2023-04-20T11:07:21.071Z,18.27
2023-04-20T11:09:54.996Z,18.43
2023-04-20T11:12:21.561Z,18.48
2023-04-20T11:14:52.878Z,18.52
2023-04-20T11:17:19.791Z,18.73
2023-04-20T11:19:46.859Z,18.59
2023-04-20T11:22:22.638Z,18.65
2023-04-20T11:24:50.173Z,18.60
2023-04-20T11:27:22.208Z,18.47
2023-04-20T11:29:57.437Z,18.22
2023-04-20T11:32:24.778Z,18.25
2023-04-20T11:35:08.205Z,18.15
2023-04-20T11:37:48.108Z,18.41
2023-04-20T11:40:15.255Z,18.31
2023-04-20T11:42:41.883Z,18.17
2023-04-20T11:45:08.803Z,18.28
2023-04-20T11:47:35.479Z,18.25
2023-04-20T11:52:56.607Z,18.42
2023-04-20T11:55:23.273Z,18.34
2023-04-20T11:57:50.303Z,18.44
2023-04-20T12:00:18.108Z,18.45
2023-04-20T12:02:44.864Z,18.52
2023-04-20T12:05:12.441Z,18.59
2023-04-20T12:07:39.886Z,18.77
2023-04-20T12:10:08.047Z,19.00
2023-04-20T12:12:34.491Z,19.13
2023-04-20T12:15:01.091Z,19.59
2023-04-20T12:17:28.003Z,19.70
2023-04-20T12:19:54.710Z,19.77
2023-04-20T12:22:21.306Z,19.76
2023-04-20T12:24:47.887Z,19.69
2023-04-20T12:27:14.479Z,19.71
2023-04-20T12:29:41.403Z,19.55
2023-04-20T12:32:08.006Z,19.60
2023-04-20T12:34:34.539Z,19.78
2023-04-20T12:37:01.651Z,19.51
2023-04-20T12:39:28.328Z,19.08
2023-04-20T12:41:54.839Z,19.46
2023-04-20T12:44:21.846Z,19.78
2023-04-20T12:46:48.393Z,19.79
2023-04-20T12:49:14.943Z,19.69
2023-04-20T12:51:41.748Z,19.93
2023-04-20T12:54:08.644Z,20.08
2023-04-20T12:56:36.147Z,20.05
2023-04-20T12:59:03.667Z,19.78
2023-04-20T13:01:30.298Z,19.47
2023-04-20T13:03:57.269Z,19.24
2023-04-20T13:06:24.400Z,19.00
2023-04-20T13:08:51.208Z,18.91
2023-04-20T13:11:18.316Z,18.75
2023-04-20T13:13:46.117Z,18.84
2023-04-20T13:16:12.785Z,19.19
2023-04-20T13:18:39.323Z,19.20
2023-04-20T13:21:06.108Z,19.33
2023-04-20T13:23:32.601Z,19.31
2023-04-20T13:26:01.519Z,19.40
2023-04-20T13:28:28.666Z,19.15
2023-04-20T13:30:57.450Z,18.95
2023-04-20T13:33:24.223Z,18.91
2023-04-20T13:35:51.533Z,18.68
2023-04-20T13:38:18.443Z,18.42
2023-04-20T13:40:46.457Z,18.34
2023-04-20T13:43:13.386Z,18.37
2023-04-20T13:45:40.022Z,18.33
2023-04-20T13:48:06.738Z,18.19
2023-04-20T13:50:33.623Z,18.52
2023-04-20T13:53:03.261Z,19.08
2023-04-20T13:55:31.285Z,19.16
2023-04-20T13:57:58.082Z,19.40
2023-04-20T14:00:25.987Z,19.76
2023-04-20T14:02:52.899Z,19.99
2023-04-20T14:05:19.659Z,20.30
2023-04-20T14:07:46.596Z,20.51
2023-04-20T14:10:13.230Z,20.51
2023-04-20T14:12:40.099Z,20.16
2023-04-20T14:15:07.183Z,19.99
2023-04-20T14:17:33.876Z,19.89
2023-04-20T14:20:00.566Z,20.10
2023-04-20T14:22:34.098Z,19.48
2023-04-20T14:25:00.717Z,19.10
2023-04-20T14:27:27.388Z,18.83
2023-04-20T14:29:55.428Z,18.96
2023-04-20T14:32:22.013Z,19.11
2023-04-20T14:34:48.571Z,19.53
2023-04-20T14:37:15.145Z,19.86
2023-04-20T14:39:41.806Z,20.00
2023-04-20T14:42:08.458Z,20.02
2023-04-20T14:44:35.582Z,20.22
2023-04-20T14:47:02.982Z,20.22
2023-04-20T14:49:29.649Z,20.32
2023-04-20T14:51:56.183Z,20.32
2023-04-20T14:54:22.849Z,19.92
2023-04-20T14:56:49.443Z,19.46
2023-04-20T14:59:16.063Z,19.05
2023-04-20T15:01:51.629Z,18.98
2023-04-20T15:04:26.259Z,18.71
2023-04-20T15:06:53.068Z,18.71
2023-04-20T15:09:19.543Z,18.75
2023-04-20T15:11:46.163Z,18.71
2023-04-20T15:14:12.667Z,18.73
2023-04-20T15:16:39.511Z,18.78
2023-04-20T15:19:06.168Z,19.14
2023-04-20T15:21:32.685Z,19.14
2023-04-20T15:23:59.213Z,19.17
2023-04-20T15:26:25.932Z,19.07
2023-04-20T15:28:52.573Z,18.78
2023-04-20T15:31:19.163Z,18.74
2023-04-20T15:33:48.187Z,18.64
2023-04-20T15:36:17.896Z,18.54
2023-04-20T15:38:44.469Z,18.65
2023-04-20T15:41:11.791Z,18.47
2023-04-20T15:43:39.516Z,18.30
2023-04-20T15:46:06.482Z,18.37
2023-04-20T15:48:33.408Z,18.42
2023-04-20T15:50:59.977Z,18.35
2023-04-20T15:53:26.857Z,18.44
2023-04-20T15:55:53.652Z,18.61
2023-04-20T15:58:20.240Z,18.75
2023-04-20T16:00:47.003Z,18.76
2023-04-20T16:03:13.932Z,18.95
2023-04-20T16:05:40.765Z,18.89
2023-04-20T16:08:07.382Z,19.04
2023-04-20T16:10:34.455Z,18.93
2023-04-20T16:13:00.916Z,18.97
2023-04-20T16:15:27.592Z,18.90
2023-04-20T16:17:54.878Z,18.80
2023-04-20T16:20:21.534Z,18.67
2023-04-20T16:22:48.080Z,18.66
2023-04-20T16:25:26.558Z,18.78
2023-04-20T16:27:53.089Z,18.66
2023-04-20T16:30:19.682Z,18.37
2023-04-20T16:32:46.349Z,18.26
2023-04-20T16:35:12.882Z,18.20
2023-04-20T16:37:39.441Z,18.10
2023-04-20T16:40:06.847Z,18.07
2023-04-20T16:42:34.230Z,17.93
2023-04-20T16:45:01.093Z,17.82
2023-04-20T16:47:27.754Z,17.88
2023-04-20T16:49:54.306Z,18.01
2023-04-20T16:52:20.897Z,17.91
2023-04-20T16:54:47.582Z,17.76
2023-04-20T16:57:14.163Z,17.64
2023-04-20T16:59:40.755Z,17.60
2023-04-20T17:02:07.975Z,17.53
2023-04-20T17:04:35.815Z,17.22
2023-04-20T17:07:02.525Z,17.22
2023-04-20T17:09:28.998Z,17.25
2023-04-20T17:11:56.575Z,17.21
2023-04-20T17:14:23.173Z,16.99
2023-04-20T17:16:51.134Z,16.94
2023-04-20T17:19:17.847Z,16.94
2023-04-20T17:21:45.586Z,16.76
2023-04-20T17:24:12.508Z,16.76
2023-04-20T17:26:39.219Z,16.70
2023-04-20T17:29:06.062Z,16.51
2023-04-20T17:31:33.539Z,16.50
2023-04-20T17:34:00.500Z,16.41
2023-04-20T17:36:28.260Z,16.29
2023-04-20T17:38:55.204Z,16.17
2023-04-20T17:41:21.833Z,16.17
2023-04-20T17:43:51.059Z,16.09
2023-04-20T17:46:17.978Z,15.99
2023-04-20T17:48:44.533Z,15.97
2023-04-20T17:51:14.926Z,15.88
2023-04-20T17:53:41.452Z,15.83
2023-04-20T17:56:08.137Z,15.83
2023-04-20T17:58:34.719Z,15.78
2023-04-20T18:01:01.714Z,15.65
2023-04-20T18:03:28.897Z,15.43
2023-04-20T18:05:55.614Z,15.23
2023-04-20T18:08:23.432Z,15.04
2023-04-20T18:10:50.164Z,14.96
2023-04-20T18:13:16.945Z,14.84
2023-04-20T18:15:43.767Z,14.73
2023-04-20T18:18:11.952Z,14.61
2023-04-20T18:20:38.503Z,14.51
2023-04-20T18:23:05.194Z,14.41
2023-04-20T18:25:31.753Z,14.37
2023-04-20T18:27:58.215Z,14.43
2023-04-20T18:30:24.910Z,14.34
2023-04-20T18:32:51.479Z,14.24
2023-04-20T18:35:19.347Z,14.15
2023-04-20T18:37:46.047Z,14.14
2023-04-20T18:40:15.425Z,14.21
2023-04-20T18:42:42.722Z,14.04
2023-04-20T18:45:10.283Z,13.94
2023-04-20T18:47:36.906Z,13.81
2023-04-20T18:50:03.687Z,13.75
2023-04-20T18:52:34.076Z,13.82
2023-04-20T18:55:01.425Z,13.81
2023-04-20T18:57:28.763Z,13.69
2023-04-20T18:59:56.502Z,13.53
2023-04-20T19:02:23.301Z,13.51
2023-04-20T19:04:50.974Z,13.41
2023-04-20T19:07:18.225Z,13.40
2023-04-20T19:09:45.121Z,13.34
2023-04-20T19:12:11.974Z,13.38
2023-04-20T19:14:38.769Z,13.37
2023-04-20T19:17:06.841Z,13.36
2023-04-20T19:19:33.529Z,13.33
2023-04-20T19:22:00.631Z,13.39
2023-04-20T19:24:27.708Z,13.49
2023-04-20T19:26:54.627Z,13.53
2023-04-20T19:29:21.444Z,13.44
2023-04-20T19:31:48.165Z,13.45
2023-04-20T19:34:15.361Z,13.51
2023-04-20T19:36:42.125Z,13.55
2023-04-20T19:39:10.350Z,13.53
2023-04-20T19:41:37.981Z,13.54
2023-04-20T19:44:06.493Z,13.55
2023-04-20T19:46:33.888Z,13.60
2023-04-20T19:49:01.494Z,13.61
2023-04-20T19:51:28.076Z,13.57
2023-04-20T19:53:56.529Z,13.53
2023-04-20T19:56:23.137Z,13.43
2023-04-20T19:58:49.683Z,13.50
2023-04-20T20:01:16.341Z,13.38
2023-04-20T20:03:43.083Z,13.36
2023-04-20T20:06:10.698Z,13.27
2023-04-20T20:08:37.675Z,13.29
2023-04-20T20:11:04.512Z,13.33
2023-04-20T20:13:31.258Z,13.28
2023-04-20T20:15:58.871Z,13.22
2023-04-20T20:18:25.923Z,13.06
2023-04-20T20:20:52.501Z,13.06
2023-04-20T20:23:18.949Z,13.06
2023-04-20T20:25:45.466Z,13.03
2023-04-20T20:28:11.944Z,12.91
2023-04-20T20:30:38.564Z,12.97
2023-04-20T20:33:05.091Z,12.91
2023-04-20T20:35:33.545Z,12.91
2023-04-20T20:38:00.255Z,12.79
2023-04-20T20:40:26.758Z,12.76
2023-04-20T20:42:53.436Z,12.79
2023-04-20T20:45:20.173Z,12.73
2023-04-20T20:47:46.797Z,12.67
2023-04-20T20:50:14.458Z,12.66
2023-04-20T20:52:41.244Z,12.63
2023-04-20T20:55:08.882Z,12.59
2023-04-20T20:57:36.026Z,12.71
2023-04-20T21:00:07.523Z,12.52
2023-04-20T21:02:34.178Z,12.49
2023-04-20T21:05:00.783Z,12.48
2023-04-20T21:07:27.257Z,12.49
2023-04-20T21:09:53.720Z,12.41
2023-04-20T21:12:20.380Z,12.38
2023-04-20T21:14:46.897Z,12.29
2023-04-20T21:17:13.390Z,12.31
2023-04-20T21:19:39.890Z,12.19
2023-04-20T21:22:06.498Z,12.23
2023-04-20T21:24:33.523Z,12.25
2023-04-20T21:27:00.031Z,12.29
2023-04-20T21:29:26.552Z,12.24
2023-04-20T21:31:53.204Z,12.28
2023-04-20T21:34:19.734Z,12.22
2023-04-20T21:36:46.311Z,12.14
2023-04-20T21:39:12.949Z,12.21
2023-04-20T21:41:39.464Z,12.20
2023-04-20T21:44:06.029Z,12.09
2023-04-20T21:46:33.168Z,12.00
2023-04-20T21:48:59.843Z,11.92
2023-04-20T21:51:27.692Z,11.85
2023-04-20T21:53:54.216Z,11.92
2023-04-20T21:56:20.699Z,11.79
2023-04-20T21:58:47.189Z,11.84
2023-04-20T22:01:13.677Z,11.76
2023-04-20T22:03:40.401Z,11.78
2023-04-20T22:06:07.182Z,11.78
2023-04-20T22:08:33.840Z,11.67
2023-04-20T22:11:00.440Z,11.63
2023-04-20T22:13:26.924Z,11.60
2023-04-20T22:15:53.753Z,11.48
2023-04-20T22:18:20.377Z,11.50
2023-04-20T22:20:46.988Z,11.34
2023-04-20T22:23:13.557Z,11.37
2023-04-20T22:25:40.804Z,11.31
2023-04-20T22:28:07.574Z,11.23
2023-04-20T22:30:34.537Z,11.06
2023-04-20T22:33:01.461Z,10.92
2023-04-20T22:35:28.294Z,10.93
2023-04-20T22:37:55.027Z,10.90
2023-04-20T22:40:21.707Z,10.91
2023-04-20T22:42:48.271Z,10.92
2023-04-20T22:45:14.960Z,11.01
2023-04-20T22:47:41.605Z,10.87
2023-04-20T22:50:10.062Z,10.82
2023-04-20T22:52:38.597Z,10.72
2023-04-20T22:55:06.629Z,10.70
2023-04-20T22:57:33.102Z,10.66
2023-04-20T22:59:59.675Z,10.61
2023-04-20T23:02:26.978Z,10.60
2023-04-20T23:04:53.607Z,10.56
2023-04-20T23:07:21.201Z,10.57
2023-04-20T23:09:48.198Z,10.43
2023-04-20T23:12:14.677Z,10.44
2023-04-20T23:14:43.861Z,10.35
2023-04-20T23:17:11.322Z,10.34
2023-04-20T23:19:38.520Z,10.33
2023-04-20T23:22:08.696Z,10.22
2023-04-20T23:24:35.645Z,10.23
2023-04-20T23:27:02.204Z,10.20
2023-04-20T23:29:28.736Z,10.18
2023-04-20T23:31:55.315Z,10.22
2023-04-20T23:34:21.881Z,10.06
2023-04-20T23:36:48.511Z,10.04
2023-04-20T23:39:15.964Z,10.03
2023-04-20T23:41:42.506Z,10.10
2023-04-20T23:44:09.296Z,9.99
2023-04-20T23:46:36.140Z,9.97
2023-04-20T23:49:03.296Z,9.90
2023-04-20T23:51:29.816Z,9.79
2023-04-20T23:53:56.287Z,9.82
2023-04-20T23:56:23.209Z,9.79
2023-04-20T23:58:49.750Z,9.72
